createdAt,value
2022-10-06T00:00:16.995Z,1006.5
2022-10-06T00:01:33.223Z,1006.5
2022-10-06T00:02:49.454Z,1006.5
2022-10-06T00:04:05.697Z,1006.5
2022-10-06T00:05:21.953Z,1006.5
2022-10-06T00:06:38.178Z,1006.5
2022-10-06T00:07:54.426Z,1006.5
2022-10-06T00:09:10.668Z,1006.5
2022-10-06T00:10:26.891Z,1006.6
2022-10-06T00:11:42.161Z,1006.5
2022-10-06T00:12:58.393Z,1006.6
2022-10-06T00:14:14.628Z,1006.6
2022-10-06T00:15:30.870Z,1006.6
2022-10-06T00:16:47.125Z,1006.6
2022-10-06T00:18:03.345Z,1006.6
2022-10-06T00:19:19.592Z,1006.6
2022-10-06T00:20:34.853Z,1006.7
2022-10-06T00:21:50.113Z,1006.6
2022-10-06T00:23:05.365Z,1006.7
2022-10-06T00:24:20.623Z,1006.6
2022-10-06T00:25:36.859Z,1006.7
2022-10-06T00:26:53.113Z,1006.7
2022-10-06T00:28:09.353Z,1006.6
2022-10-06T00:29:25.581Z,1006.7
2022-10-06T00:30:41.821Z,1006.8
2022-10-06T00:31:58.059Z,1006.7
2022-10-06T00:33:14.295Z,1006.7
2022-10-06T00:34:30.550Z,1006.7
2022-10-06T00:35:46.780Z,1006.7
2022-10-06T00:37:03.016Z,1006.7
2022-10-06T00:38:19.260Z,1006.6
2022-10-06T00:39:35.505Z,1006.7
2022-10-06T00:40:50.755Z,1006.7
2022-10-06T00:42:06.986Z,1006.7
2022-10-06T00:43:23.225Z,1006.7
2022-10-06T00:44:39.479Z,1006.7
2022-10-06T00:45:55.711Z,1006.7
2022-10-06T00:47:11.950Z,1006.7
2022-10-06T00:48:28.195Z,1006.7
2022-10-06T00:49:43.439Z,1006.7
2022-10-06T00:50:58.712Z,1006.8
2022-10-06T00:52:13.965Z,1006.8
2022-10-06T00:53:29.226Z,1006.8
2022-10-06T00:54:45.457Z,1006.8
2022-10-06T00:56:01.693Z,1006.8
2022-10-06T00:57:17.946Z,1006.8
2022-10-06T00:58:34.186Z,1006.8
2022-10-06T00:59:50.416Z,1006.8
2022-10-06T01:01:06.654Z,1006.9
2022-10-06T01:02:22.902Z,1007
2022-10-06T01:03:39.141Z,1007
2022-10-06T01:04:55.381Z,1007
2022-10-06T01:06:11.605Z,1007
2022-10-06T01:07:27.861Z,1007
2022-10-06T01:08:44.097Z,1007
2022-10-06T01:09:59.345Z,1007
2022-10-06T01:11:15.587Z,1007.1
2022-10-06T01:12:31.830Z,1007
2022-10-06T01:13:48.058Z,1007
2022-10-06T01:15:04.313Z,1007
2022-10-06T01:16:20.551Z,1007.1
2022-10-06T01:17:36.791Z,1007.1
2022-10-06T01:18:52.052Z,1007.1
2022-10-06T01:20:07.294Z,1007.1
2022-10-06T01:21:22.562Z,1007.1
2022-10-06T01:22:37.817Z,1007.1
2022-10-06T01:23:53.078Z,1007.1
2022-10-06T01:25:08.342Z,1007.1
2022-10-06T01:26:23.600Z,1007.1
2022-10-06T01:27:38.854Z,1007.1
2022-10-06T01:28:55.094Z,1007
2022-10-06T01:30:11.321Z,1007.1
2022-10-06T01:31:27.571Z,1007
2022-10-06T01:32:43.805Z,1007
2022-10-06T01:34:00.052Z,1007
2022-10-06T01:35:16.292Z,1007
2022-10-06T01:36:32.524Z,1007
2022-10-06T01:37:48.766Z,1007
2022-10-06T01:39:05.007Z,1007
2022-10-06T01:40:21.236Z,1007
2022-10-06T01:41:37.483Z,1007
2022-10-06T01:42:53.715Z,1007
2022-10-06T01:44:08.987Z,1007
2022-10-06T01:45:25.208Z,1007.1
2022-10-06T01:46:41.461Z,1007
2022-10-06T01:47:57.698Z,1007
2022-10-06T01:49:13.936Z,1007.1
2022-10-06T01:50:30.168Z,1007.1
2022-10-06T01:51:46.416Z,1007.1
2022-10-06T01:53:01.676Z,1007.1
2022-10-06T01:54:16.925Z,1007.1
2022-10-06T01:55:33.175Z,1007.1
2022-10-06T01:56:49.403Z,1007.1
2022-10-06T01:58:05.657Z,1007.1
2022-10-06T01:59:21.887Z,1007.1
2022-10-06T02:00:38.123Z,1007.2
2022-10-06T02:01:54.367Z,1007.2
2022-10-06T02:03:10.613Z,1007.2
2022-10-06T02:04:26.838Z,1007.3
2022-10-06T02:05:43.090Z,1007.3
2022-10-06T02:06:59.327Z,1007.2
2022-10-06T02:08:15.556Z,1007.2
2022-10-06T02:09:31.799Z,1007.2
2022-10-06T02:10:47.061Z,1007.3
2022-10-06T02:12:03.293Z,1007.3
2022-10-06T02:13:19.541Z,1007.2
2022-10-06T02:14:35.783Z,1007.3
2022-10-06T02:15:52.016Z,1007.3
2022-10-06T02:17:08.247Z,1007.3
2022-10-06T02:18:24.485Z,1007.3
2022-10-06T02:19:39.747Z,1007.3
2022-10-06T02:20:55.014Z,1007.3
2022-10-06T02:22:10.270Z,1007.3
2022-10-06T02:23:25.521Z,1007.3
2022-10-06T02:24:40.784Z,1007.3
2022-10-06T02:25:56.045Z,1007.3
2022-10-06T02:27:12.282Z,1007.4
2022-10-06T02:28:28.526Z,1007.4
2022-10-06T02:29:44.756Z,1007.4
2022-10-06T02:31:00.998Z,1007.4
2022-10-06T02:32:17.231Z,1007.4
2022-10-06T02:33:33.472Z,1007.4
2022-10-06T02:34:49.720Z,1007.4
2022-10-06T02:36:05.950Z,1007.5
2022-10-06T02:37:22.204Z,1007.4
2022-10-06T02:38:38.442Z,1007.5
2022-10-06T02:39:54.680Z,1007.5
2022-10-06T02:41:10.920Z,1007.5
2022-10-06T02:42:26.163Z,1007.6
2022-10-06T02:43:42.421Z,1007.6
2022-10-06T02:44:58.652Z,1007.6
2022-10-06T02:46:14.884Z,1007.6
2022-10-06T02:47:31.125Z,1007.7
2022-10-06T02:48:47.377Z,1007.7
2022-10-06T02:50:03.605Z,1007.7
2022-10-06T02:51:18.873Z,1007.7
2022-10-06T02:52:34.119Z,1007.8
2022-10-06T02:53:49.392Z,1007.8
2022-10-06T02:55:04.645Z,1007.8
2022-10-06T02:56:20.874Z,1007.8
2022-10-06T02:57:37.123Z,1007.8
2022-10-06T02:58:53.361Z,1007.9
2022-10-06T03:00:09.598Z,1007.9
2022-10-06T03:01:25.833Z,1007.9
2022-10-06T03:02:42.071Z,1007.9
2022-10-06T03:03:58.320Z,1008
2022-10-06T03:05:14.559Z,1008
2022-10-06T03:06:30.787Z,1008
2022-10-06T03:07:47.030Z,1008
2022-10-06T03:09:03.281Z,1008
2022-10-06T03:10:19.513Z,1008
2022-10-06T03:11:34.769Z,1008.1
2022-10-06T03:12:51.006Z,1008.1
2022-10-06T03:14:07.250Z,1008.1
2022-10-06T03:15:23.479Z,1008
2022-10-06T03:16:39.722Z,1008
2022-10-06T03:17:55.971Z,1008.1
2022-10-06T03:19:12.200Z,1008.1
2022-10-06T03:20:27.458Z,1008.1
2022-10-06T03:21:42.715Z,1008.1
2022-10-06T03:22:57.983Z,1008.1
2022-10-06T03:24:13.239Z,1008.1
2022-10-06T03:25:28.509Z,1008
2022-10-06T03:26:44.739Z,1008.1
2022-10-06T03:28:00.969Z,1008
2022-10-06T03:29:17.225Z,1008.1
2022-10-06T03:30:33.000Z,1008.2
2022-10-06T03:31:49.694Z,1008.2
2022-10-06T03:33:05.932Z,1008.2
2022-10-06T03:34:22.185Z,1008.2
2022-10-06T03:35:38.408Z,1008.2
2022-10-06T03:36:54.645Z,1008.2
2022-10-06T03:38:10.890Z,1008.2
2022-10-06T03:39:27.136Z,1008.3
2022-10-06T03:40:43.383Z,1008.3
2022-10-06T03:41:58.631Z,1008.3
2022-10-06T03:43:14.859Z,1008.3
2022-10-06T03:47:03.575Z,1008.5
2022-10-06T03:48:18.845Z,1008.4
2022-10-06T03:49:34.097Z,1008.4
2022-10-06T03:50:50.351Z,1008.5
2022-10-06T03:52:06.584Z,1008.5
2022-10-06T03:54:39.068Z,1008.6
2022-10-06T03:55:55.283Z,1008.5
2022-10-06T03:57:11.547Z,1008.6
2022-10-06T03:58:27.769Z,1008.7
2022-10-06T03:59:43.993Z,1008.6
2022-10-06T04:01:00.238Z,1008.7
2022-10-06T04:02:15.520Z,1008.7
2022-10-06T04:03:30.748Z,1008.7
2022-10-06T04:04:47.015Z,1008.7
2022-10-06T04:06:03.225Z,1008.7
2022-10-06T04:07:19.471Z,1008.7
2022-10-06T04:08:35.722Z,1008.6
2022-10-06T04:09:51.971Z,1008.7
2022-10-06T04:11:08.193Z,1008.7
2022-10-06T04:12:24.420Z,1008.8
2022-10-06T04:13:40.656Z,1008.8
2022-10-06T04:14:56.905Z,1008.8
2022-10-06T04:16:12.164Z,1008.8
2022-10-06T04:17:27.441Z,1008.8
2022-10-06T04:18:43.659Z,1008.9
2022-10-06T04:19:59.894Z,1009
2022-10-06T04:21:16.147Z,1009
2022-10-06T04:22:32.376Z,1009
2022-10-06T04:23:48.624Z,1009.1
2022-10-06T04:25:04.850Z,1009.1
2022-10-06T04:26:21.122Z,1009.1
2022-10-06T04:27:37.333Z,1009.2
2022-10-06T04:28:52.597Z,1009.2
2022-10-06T04:30:07.843Z,1009.2
2022-10-06T04:31:24.096Z,1009.2
2022-10-06T04:32:40.325Z,1009.3
2022-10-06T04:33:56.565Z,1009.3
2022-10-06T04:35:12.811Z,1009.3
2022-10-06T04:36:29.038Z,1009.2
2022-10-06T04:37:45.280Z,1009.2
2022-10-06T04:39:01.549Z,1009.3
2022-10-06T04:40:17.778Z,1009.3
2022-10-06T04:41:34.020Z,1009.4
2022-10-06T04:42:50.247Z,1009.4
2022-10-06T04:44:06.492Z,1009.5
2022-10-06T04:45:22.720Z,1009.5
2022-10-06T04:46:38.955Z,1009.6
2022-10-06T04:47:54.225Z,1009.6
2022-10-06T04:49:10.453Z,1009.6
2022-10-06T04:50:26.708Z,1009.7
2022-10-06T04:51:42.940Z,1009.8
2022-10-06T04:52:59.170Z,1009.8
2022-10-06T04:54:15.412Z,1009.8
2022-10-06T04:55:30.682Z,1009.9
2022-10-06T04:56:45.926Z,1010
2022-10-06T04:58:01.185Z,1010.1
2022-10-06T05:00:33.670Z,1010.1
2022-10-06T05:01:49.919Z,1010
2022-10-06T05:03:05.164Z,1010.1
2022-10-06T05:04:21.398Z,1010.1
2022-10-06T05:05:37.643Z,1010.2
2022-10-06T05:06:53.873Z,1010.2
2022-10-06T05:08:10.119Z,1010.2
2022-10-06T05:09:26.364Z,1010.3
2022-10-06T05:10:42.604Z,1010.2
2022-10-06T05:11:58.836Z,1010.3
2022-10-06T05:13:15.082Z,1010.4
2022-10-06T05:14:31.322Z,1010.5
2022-10-06T05:15:47.552Z,1010.5
2022-10-06T05:17:03.791Z,1010.5
2022-10-06T05:18:20.034Z,1010.6
2022-10-06T05:19:35.289Z,1010.6
2022-10-06T05:20:51.536Z,1010.6
2022-10-06T05:22:07.769Z,1010.7
2022-10-06T05:23:24.018Z,1010.7
2022-10-06T05:24:40.252Z,1010.7
2022-10-06T05:25:55.515Z,1010.7
2022-10-06T05:27:11.755Z,1010.8
2022-10-06T05:28:27.010Z,1010.8
2022-10-06T05:29:42.272Z,1010.8
2022-10-06T05:30:58.515Z,1010.8
2022-10-06T05:32:14.751Z,1010.8
2022-10-06T05:33:30.979Z,1010.9
2022-10-06T05:34:47.224Z,1010.9
2022-10-06T05:36:03.458Z,1010.9
2022-10-06T05:37:19.706Z,1010.9
2022-10-06T05:38:35.951Z,1011
2022-10-06T05:39:52.173Z,1011
2022-10-06T05:41:08.423Z,1011.1
2022-10-06T05:42:24.000Z,1011.3
2022-10-06T05:43:40.896Z,1011.4
2022-10-06T05:44:57.138Z,1011.5
2022-10-06T05:46:12.390Z,1011.6
2022-10-06T05:47:28.628Z,1011.5
2022-10-06T05:48:44.867Z,1011.5
2022-10-06T05:50:01.103Z,1011.5
2022-10-06T05:51:17.344Z,1011.5
2022-10-06T05:52:33.583Z,1011.6
2022-10-06T05:53:49.821Z,1011.6
2022-10-06T05:55:05.089Z,1011.7
2022-10-06T05:56:20.350Z,1011.7
2022-10-06T05:57:36.585Z,1011.8
2022-10-06T05:58:51.844Z,1011.8
2022-10-06T06:00:07.096Z,1011.8
2022-10-06T06:01:23.340Z,1011.8
2022-10-06T06:02:39.570Z,1011.7
2022-10-06T06:03:55.824Z,1011.7
2022-10-06T06:05:12.062Z,1011.7
2022-10-06T06:06:28.294Z,1011.7
2022-10-06T06:07:44.527Z,1011.8
2022-10-06T06:09:00.773Z,1011.8
2022-10-06T06:10:17.018Z,1011.9
2022-10-06T06:11:33.246Z,1011.9
2022-10-06T06:12:49.488Z,1012
2022-10-06T06:14:05.726Z,1012
2022-10-06T06:15:21.969Z,1012
2022-10-06T06:16:37.226Z,1012
2022-10-06T06:17:53.467Z,1012.1
2022-10-06T06:19:09.697Z,1012.1
2022-10-06T06:20:25.941Z,1012.2
2022-10-06T06:21:42.179Z,1012.2
2022-10-06T06:22:58.428Z,1012.3
2022-10-06T06:24:14.657Z,1012.3
2022-10-06T06:25:30.910Z,1012.3
2022-10-06T06:26:46.164Z,1012.4
2022-10-06T06:28:01.428Z,1012.4
2022-10-06T06:29:16.686Z,1012.5
2022-10-06T06:30:31.928Z,1012.5
2022-10-06T06:31:48.171Z,1012.5
2022-10-06T06:33:04.408Z,1012.5
2022-10-06T06:34:20.643Z,1012.6
2022-10-06T06:35:36.884Z,1012.6
2022-10-06T06:36:53.138Z,1012.7
2022-10-06T06:38:09.363Z,1012.7
2022-10-06T06:39:25.620Z,1012.6
2022-10-06T06:40:41.853Z,1012.5
2022-10-06T06:41:58.081Z,1012.6
2022-10-06T06:43:14.336Z,1012.6
2022-10-06T06:44:30.574Z,1012.6
2022-10-06T06:45:46.805Z,1012.6
2022-10-06T06:47:02.059Z,1012.6
2022-10-06T06:48:18.294Z,1012.6
2022-10-06T06:49:34.548Z,1012.7
2022-10-06T06:50:50.780Z,1012.8
2022-10-06T06:52:07.021Z,1012.8
2022-10-06T06:53:23.264Z,1012.8
2022-10-06T06:54:39.501Z,1012.9
2022-10-06T06:55:54.754Z,1012.9
2022-10-06T06:57:10.994Z,1012.9
2022-10-06T06:58:26.258Z,1012.8
2022-10-06T06:59:42.498Z,1012.9
2022-10-06T07:00:57.748Z,1013
2022-10-06T07:02:13.010Z,1013
2022-10-06T07:03:29.245Z,1013
2022-10-06T07:04:45.482Z,1013
2022-10-06T07:06:01.717Z,1013.1
2022-10-06T07:07:17.970Z,1013.2
2022-10-06T07:08:34.197Z,1013.2
2022-10-06T07:09:50.440Z,1013.2
2022-10-06T07:11:06.685Z,1013.2
2022-10-06T07:12:22.917Z,1013.2
2022-10-06T07:13:39.155Z,1013.2
2022-10-06T07:14:55.410Z,1013.2
2022-10-06T07:16:11.635Z,1013.3
2022-10-06T07:17:27.892Z,1013.3
2022-10-06T07:18:43.144Z,1013.3
2022-10-06T07:19:59.378Z,1013.3
2022-10-06T07:21:15.606Z,1013.4
2022-10-06T07:22:31.853Z,1013.4
2022-10-06T07:23:48.094Z,1013.5
2022-10-06T07:25:04.333Z,1013.5
2022-10-06T07:26:20.566Z,1013.5
2022-10-06T07:27:35.830Z,1013.5
2022-10-06T07:28:51.083Z,1013.5
2022-10-06T07:30:07.324Z,1013.5
2022-10-06T07:31:23.578Z,1013.6
2022-10-06T07:32:39.805Z,1013.5
2022-10-06T07:33:56.044Z,1013.5
2022-10-06T07:35:12.289Z,1013.5
2022-10-06T07:36:28.526Z,1013.7
2022-10-06T07:37:44.758Z,1013.8
2022-10-06T07:39:01.005Z,1013.8
2022-10-06T07:40:16.261Z,1013.7
2022-10-06T07:41:32.499Z,1013.7
2022-10-06T07:42:48.735Z,1013.8
2022-10-06T07:44:04.985Z,1013.8
2022-10-06T07:45:21.217Z,1013.9
2022-10-06T07:46:37.453Z,1014
2022-10-06T07:47:53.705Z,1014
2022-10-06T07:49:09.943Z,1014
2022-10-06T07:50:26.181Z,1014
2022-10-06T07:51:42.412Z,1014
2022-10-06T07:52:58.662Z,1013.9
2022-10-06T07:54:13.917Z,1013.9
2022-10-06T07:55:29.172Z,1013.9
2022-10-06T07:56:45.425Z,1014
2022-10-06T07:58:01.656Z,1013.9
2022-10-06T07:59:17.887Z,1013.9
2022-10-06T08:00:34.144Z,1013.9
2022-10-06T08:01:50.367Z,1014
2022-10-06T08:03:06.616Z,1014
2022-10-06T08:04:22.842Z,1014.1
2022-10-06T08:05:39.095Z,1014.1
2022-10-06T08:06:55.327Z,1014.1
2022-10-06T08:08:11.568Z,1014.1
2022-10-06T08:09:27.816Z,1014.2
2022-10-06T08:10:44.050Z,1014.2
2022-10-06T08:11:59.301Z,1014.3
2022-10-06T08:13:15.540Z,1014.2
2022-10-06T08:14:31.778Z,1014.2
2022-10-06T08:15:48.017Z,1014.3
2022-10-06T08:17:04.263Z,1014.3
2022-10-06T08:18:20.498Z,1014.3
2022-10-06T08:19:36.732Z,1014.3
2022-10-06T08:20:51.990Z,1014.4
2022-10-06T08:22:07.254Z,1014.3
2022-10-06T08:23:22.509Z,1014.2
2022-10-06T08:24:37.776Z,1014.4
2022-10-06T08:25:53.042Z,1014.5
2022-10-06T08:27:08.292Z,1014.6
2022-10-06T08:28:23.558Z,1014.5
2022-10-06T08:29:38.804Z,1014.5
2022-10-06T08:30:55.050Z,1014.5
2022-10-06T08:32:11.287Z,1014.5
2022-10-06T08:33:27.528Z,1014.6
2022-10-06T08:34:43.759Z,1014.6
2022-10-06T08:36:00.000Z,1014.6
2022-10-06T08:37:16.231Z,1014.5
2022-10-06T08:38:32.478Z,1014.6
2022-10-06T08:39:48.713Z,1014.6
2022-10-06T08:41:04.961Z,1014.6
2022-10-06T08:42:21.195Z,1014.6
2022-10-06T08:43:37.421Z,1014.6
2022-10-06T08:44:53.669Z,1014.6
2022-10-06T08:46:08.931Z,1014.7
2022-10-06T08:47:25.161Z,1014.6
2022-10-06T08:48:41.408Z,1014.6
2022-10-06T08:49:57.650Z,1014.6
2022-10-06T08:51:13.894Z,1014.7
2022-10-06T08:52:30.118Z,1014.7
2022-10-06T08:53:46.355Z,1014.7
2022-10-06T08:55:02.607Z,1014.7
2022-10-06T08:56:17.868Z,1014.7
2022-10-06T08:57:33.123Z,1014.7
2022-10-06T08:58:48.372Z,1014.8
2022-10-06T09:00:04.625Z,1014.7
2022-10-06T09:01:19.000Z,1014.7
2022-10-06T09:02:36.100Z,1014.8
2022-10-06T09:03:52.346Z,1014.8
2022-10-06T09:05:08.593Z,1014.7
2022-10-06T09:06:24.819Z,1014.7
2022-10-06T09:07:41.067Z,1014.8
2022-10-06T09:08:57.302Z,1014.8
2022-10-06T09:10:13.559Z,1014.9
2022-10-06T09:11:29.784Z,1014.8
2022-10-06T09:12:46.031Z,1014.9
2022-10-06T09:14:02.270Z,1014.8
2022-10-06T09:15:18.500Z,1014.9
2022-10-06T09:16:34.751Z,1014.9
2022-10-06T09:17:49.989Z,1014.9
2022-10-06T09:22:54.944Z,1014.9
2022-10-06T09:29:14.184Z,1015.1
2022-10-06T09:34:19.146Z,1015.1
2022-10-06T09:35:35.380Z,1015.2
2022-10-06T09:39:24.090Z,1015.2
2022-10-06T09:41:56.576Z,1015.1
2022-10-06T09:43:11.832Z,1015.2
2022-10-06T09:45:44.308Z,1015.2
2022-10-06T09:47:00.542Z,1015.3
2022-10-06T09:48:16.790Z,1015.4
2022-10-06T09:49:33.028Z,1015.3
2022-10-06T09:50:49.265Z,1015.3
2022-10-06T09:52:04.524Z,1015.4
2022-10-06T09:54:36.021Z,1015.4
2022-10-06T09:55:52.263Z,1015.4
2022-10-06T09:57:08.496Z,1015.4
2022-10-06T09:58:24.731Z,1015.3
2022-10-06T09:59:40.984Z,1015.4
2022-10-06T10:00:57.214Z,1015.3
2022-10-06T10:02:13.449Z,1015.4
2022-10-06T10:03:29.696Z,1015.4
2022-10-06T10:04:45.940Z,1015.4
2022-10-06T10:06:02.173Z,1015.5
2022-10-06T10:07:18.408Z,1015.4
2022-10-06T10:08:34.661Z,1015.4
2022-10-06T10:09:49.909Z,1015.4
2022-10-06T10:11:06.144Z,1015.3
2022-10-06T10:12:22.397Z,1015.4
2022-10-06T10:13:38.615Z,1015.4
2022-10-06T10:14:54.865Z,1015.3
2022-10-06T10:16:11.095Z,1015.4
2022-10-06T10:17:27.343Z,1015.4
2022-10-06T10:18:42.593Z,1015.4
2022-10-06T10:19:57.865Z,1015.4
2022-10-06T10:21:14.092Z,1015.4
2022-10-06T10:22:30.331Z,1015.3
2022-10-06T10:23:46.572Z,1015.3
2022-10-06T10:25:02.821Z,1015.4
2022-10-06T10:26:19.058Z,1015.3
2022-10-06T10:27:35.287Z,1015.3
2022-10-06T10:28:51.532Z,1015.3
2022-10-06T10:30:07.767Z,1015.3
2022-10-06T10:31:24.005Z,1015.3
2022-10-06T10:32:40.245Z,1015.4
2022-10-06T10:33:56.486Z,1015.4
2022-10-06T10:35:12.723Z,1015.3
2022-10-06T10:36:27.983Z,1015.4
2022-10-06T10:37:44.227Z,1015.3
2022-10-06T10:39:00.461Z,1015.4
2022-10-06T10:40:16.711Z,1015.4
2022-10-06T10:41:32.933Z,1015.4
2022-10-06T10:42:48.209Z,1015.5
2022-10-06T10:44:03.459Z,1015.4
2022-10-06T10:45:18.727Z,1015.5
2022-10-06T10:46:33.982Z,1015.4
2022-10-06T10:47:49.240Z,1015.5
2022-10-06T10:49:04.484Z,1015.5
2022-10-06T10:50:19.761Z,1015.5
2022-10-06T10:51:35.013Z,1015.4
2022-10-06T10:52:51.253Z,1015.5
2022-10-06T10:54:07.481Z,1015.5
2022-10-06T10:55:23.731Z,1015.5
2022-10-06T10:56:39.952Z,1015.5
2022-10-06T10:57:56.213Z,1015.5
2022-10-06T10:59:12.437Z,1015.5
2022-10-06T11:00:28.672Z,1015.5
2022-10-06T11:01:44.920Z,1015.6
2022-10-06T11:03:01.170Z,1015.6
2022-10-06T11:04:17.393Z,1015.6
2022-10-06T11:05:33.641Z,1015.6
2022-10-06T11:06:49.885Z,1015.6
2022-10-06T11:08:05.126Z,1015.6
2022-10-06T11:09:21.366Z,1015.7
2022-10-06T11:10:37.616Z,1015.7
2022-10-06T11:11:53.843Z,1015.6
2022-10-06T11:13:10.102Z,1015.7
2022-10-06T11:14:26.332Z,1015.6
2022-10-06T11:15:42.559Z,1015.5
2022-10-06T11:16:57.822Z,1015.6
2022-10-06T11:18:13.082Z,1015.7
2022-10-06T11:19:28.335Z,1015.6
2022-10-06T11:20:43.601Z,1015.7
2022-10-06T11:21:59.833Z,1015.7
2022-10-06T11:23:16.067Z,1015.7
2022-10-06T11:24:32.310Z,1015.7
2022-10-06T11:25:48.547Z,1015.7
2022-10-06T11:27:04.790Z,1015.7
2022-10-06T11:28:21.025Z,1015.7
2022-10-06T11:29:37.268Z,1015.7
2022-10-06T11:30:53.514Z,1015.7
2022-10-06T11:32:09.742Z,1015.6
2022-10-06T11:33:25.993Z,1015.6
2022-10-06T11:34:42.224Z,1015.6
2022-10-06T11:35:58.467Z,1015.6
2022-10-06T11:37:13.728Z,1015.6
2022-10-06T11:38:29.957Z,1015.5
2022-10-06T11:39:46.198Z,1015.6
2022-10-06T11:41:02.452Z,1015.6
2022-10-06T11:42:18.689Z,1015.5
2022-10-06T11:43:34.916Z,1015.6
2022-10-06T11:44:51.161Z,1015.6
2022-10-06T11:46:06.429Z,1015.6
2022-10-06T11:47:21.666Z,1015.5
2022-10-06T11:48:37.910Z,1015.6
2022-10-06T11:49:54.151Z,1015.5
2022-10-06T11:51:10.394Z,1015.5
2022-10-06T11:52:26.622Z,1015.5
2022-10-06T11:53:42.866Z,1015.6
2022-10-06T11:54:58.130Z,1015.6
2022-10-06T11:56:14.368Z,1015.5
2022-10-06T11:57:30.604Z,1015.6
2022-10-06T11:58:46.838Z,1015.5
2022-10-06T12:00:03.080Z,1015.5
2022-10-06T12:01:19.323Z,1015.5
2022-10-06T12:02:35.557Z,1015.6
2022-10-06T12:03:51.812Z,1015.5
2022-10-06T12:05:08.049Z,1015.6
2022-10-06T12:06:24.280Z,1015.6
2022-10-06T12:07:40.514Z,1015.6
2022-10-06T12:08:56.758Z,1015.6
2022-10-06T12:10:13.002Z,1015.6
2022-10-06T12:11:28.253Z,1015.7
2022-10-06T12:12:43.526Z,1015.4
2022-10-06T12:13:58.768Z,1015.4
2022-10-06T12:15:14.026Z,1015.5
2022-10-06T12:16:29.296Z,1015.4
2022-10-06T12:17:44.544Z,1015.5
2022-10-06T12:18:59.807Z,1015.4
2022-10-06T12:20:15.073Z,1015.4
2022-10-06T12:21:30.325Z,1015.5
2022-10-06T12:22:46.546Z,1015.4
2022-10-06T12:24:02.799Z,1015.4
2022-10-06T12:25:19.033Z,1015.4
2022-10-06T12:26:35.268Z,1015.5
2022-10-06T12:27:51.518Z,1015.5
2022-10-06T12:29:07.764Z,1015.4
2022-10-06T12:30:23.989Z,1015.5
2022-10-06T12:31:40.239Z,1015.5
2022-10-06T12:32:56.461Z,1015.5
2022-10-06T12:34:12.710Z,1015.5
2022-10-06T12:35:28.953Z,1015.5
2022-10-06T12:36:45.196Z,1015.5
2022-10-06T12:38:00.440Z,1015.6
2022-10-06T12:39:16.678Z,1015.6
2022-10-06T12:40:32.914Z,1015.6
2022-10-06T12:41:49.170Z,1015.5
2022-10-06T12:43:05.410Z,1015.5
2022-10-06T12:45:37.873Z,1015.5
2022-10-06T12:46:54.113Z,1015.5
2022-10-06T12:48:09.381Z,1015.5
2022-10-06T12:49:24.624Z,1015.6
2022-10-06T12:50:39.892Z,1015.6
2022-10-06T12:51:55.146Z,1015.5
2022-10-06T12:53:11.386Z,1015.6
2022-10-06T12:54:27.620Z,1015.5
2022-10-06T12:55:43.860Z,1015.5
2022-10-06T12:57:00.105Z,1015.6
2022-10-06T12:58:16.351Z,1015.6
2022-10-06T12:59:32.577Z,1015.6
2022-10-06T13:00:48.833Z,1015.6
2022-10-06T13:02:05.073Z,1015.6
2022-10-06T13:03:21.310Z,1015.5
2022-10-06T13:04:37.536Z,1015.5
2022-10-06T13:05:53.786Z,1015.5
2022-10-06T13:07:10.022Z,1015.5
2022-10-06T13:08:25.275Z,1015.6
2022-10-06T13:09:41.504Z,1015.6
2022-10-06T13:10:57.746Z,1015.6
2022-10-06T13:12:13.983Z,1015.6
2022-10-06T13:13:30.221Z,1015.6
2022-10-06T13:14:46.461Z,1015.5
2022-10-06T13:16:02.703Z,1015.6
2022-10-06T13:17:17.975Z,1015.6
2022-10-06T13:18:33.221Z,1015.6
2022-10-06T13:19:48.483Z,1015.6
2022-10-06T13:21:03.735Z,1015.6
2022-10-06T13:22:19.972Z,1015.5
2022-10-06T13:23:36.218Z,1015.6
2022-10-06T13:24:52.468Z,1015.6
2022-10-06T13:26:08.708Z,1015.6
2022-10-06T13:27:24.933Z,1015.6
2022-10-06T13:28:41.165Z,1015.6
2022-10-06T13:29:57.406Z,1015.6
2022-10-06T13:31:13.645Z,1015.5
2022-10-06T13:32:29.892Z,1015.5
2022-10-06T13:33:46.129Z,1015.5
2022-10-06T13:35:02.367Z,1015.5
2022-10-06T13:36:18.619Z,1015.5
2022-10-06T13:37:33.856Z,1015.5
2022-10-06T13:38:50.109Z,1015.5
2022-10-06T13:40:06.341Z,1015.5
2022-10-06T13:41:22.584Z,1015.5
2022-10-06T13:42:38.812Z,1015.5
2022-10-06T13:43:55.068Z,1015.5
2022-10-06T13:45:11.308Z,1015.6
2022-10-06T13:46:26.561Z,1015.5
2022-10-06T13:47:41.809Z,1015.5
2022-10-06T13:48:57.072Z,1015.5
2022-10-06T13:50:12.330Z,1015.6
2022-10-06T13:51:28.574Z,1015.6
2022-10-06T13:52:44.814Z,1015.6
2022-10-06T13:54:01.049Z,1015.6
2022-10-06T13:55:17.282Z,1015.6
2022-10-06T13:56:33.527Z,1015.6
2022-10-06T13:57:49.762Z,1015.6
2022-10-06T13:59:05.997Z,1015.6
2022-10-06T14:00:22.256Z,1015.6
2022-10-06T14:01:38.483Z,1015.6
2022-10-06T14:02:54.711Z,1015.6
2022-10-06T14:04:10.954Z,1015.6
2022-10-06T14:05:27.199Z,1015.6
2022-10-06T14:06:42.462Z,1015.7
2022-10-06T14:07:58.703Z,1015.6
2022-10-06T14:09:14.928Z,1015.6
2022-10-06T14:10:31.184Z,1015.7
2022-10-06T14:11:47.421Z,1015.6
2022-10-06T14:13:03.647Z,1015.6
2022-10-06T14:14:19.884Z,1015.6
2022-10-06T14:15:35.149Z,1015.6
2022-10-06T14:16:50.406Z,1015.6
2022-10-06T14:18:05.664Z,1015.7
2022-10-06T14:19:20.932Z,1015.7
2022-10-06T14:20:37.169Z,1015.7
2022-10-06T14:21:53.413Z,1015.6
2022-10-06T14:23:09.642Z,1015.6
2022-10-06T14:24:25.884Z,1015.7
2022-10-06T14:25:42.115Z,1015.7
2022-10-06T14:26:58.351Z,1015.6
2022-10-06T14:28:14.605Z,1015.7
2022-10-06T14:29:30.831Z,1015.7
2022-10-06T14:30:47.074Z,1015.7
2022-10-06T14:33:19.552Z,1015.8
2022-10-06T14:34:35.790Z,1015.7
2022-10-06T14:35:51.040Z,1015.8
2022-10-06T14:37:07.281Z,1015.7
2022-10-06T14:38:23.525Z,1015.8
2022-10-06T14:39:39.771Z,1015.7
2022-10-06T14:40:56.003Z,1015.8
2022-10-06T14:42:12.250Z,1015.8
2022-10-06T14:43:28.492Z,1015.8
2022-10-06T14:44:44.721Z,1015.7
2022-10-06T14:45:59.991Z,1015.7
2022-10-06T14:47:15.239Z,1015.7
2022-10-06T14:48:30.494Z,1015.8
2022-10-06T14:49:45.743Z,1015.7
2022-10-06T14:51:01.992Z,1015.7
2022-10-06T14:52:18.229Z,1015.7
2022-10-06T14:53:34.468Z,1015.8
2022-10-06T14:54:50.700Z,1015.8
2022-10-06T14:56:06.942Z,1015.8
2022-10-06T14:57:23.200Z,1015.8
2022-10-06T14:58:39.426Z,1015.7
2022-10-06T14:59:55.664Z,1015.7
2022-10-06T15:01:11.910Z,1015.7
2022-10-06T15:02:28.152Z,1015.7
2022-10-06T15:03:44.387Z,1015.7
2022-10-06T15:05:00.628Z,1015.7
2022-10-06T15:06:15.875Z,1015.7
2022-10-06T15:07:32.115Z,1015.7
2022-10-06T15:08:48.357Z,1015.8
2022-10-06T15:10:04.598Z,1015.7
2022-10-06T15:11:20.835Z,1015.7
2022-10-06T15:12:37.066Z,1015.7
2022-10-06T15:13:53.312Z,1015.8
2022-10-06T15:15:08.583Z,1015.7
2022-10-06T15:16:23.841Z,1015.8
2022-10-06T15:17:39.099Z,1015.7
2022-10-06T15:18:54.341Z,1015.8
2022-10-06T15:20:10.581Z,1015.7
2022-10-06T15:21:26.819Z,1015.7
2022-10-06T15:22:43.062Z,1015.7
2022-10-06T15:23:59.298Z,1015.7
2022-10-06T15:25:15.537Z,1015.7
2022-10-06T15:26:31.780Z,1015.7
2022-10-06T15:27:48.015Z,1015.7
2022-10-06T15:29:04.000Z,1015.7
2022-10-06T15:30:20.504Z,1015.7
2022-10-06T15:31:36.737Z,1015.7
2022-10-06T15:32:52.979Z,1015.6
2022-10-06T15:34:09.223Z,1015.6
2022-10-06T15:35:24.469Z,1015.7
2022-10-06T15:36:40.717Z,1015.7
2022-10-06T15:37:56.951Z,1015.8
2022-10-06T15:39:13.196Z,1015.7
2022-10-06T15:40:29.435Z,1015.7
2022-10-06T15:41:45.662Z,1015.8
2022-10-06T15:43:01.905Z,1015.8
2022-10-06T15:44:17.181Z,1015.7
2022-10-06T15:45:32.416Z,1015.7
2022-10-06T15:46:47.679Z,1015.8
2022-10-06T15:48:02.923Z,1015.7
2022-10-06T15:49:19.175Z,1015.8
2022-10-06T15:50:35.426Z,1015.7
2022-10-06T15:51:51.657Z,1015.7
2022-10-06T15:53:07.000Z,1015.7
2022-10-06T15:54:24.140Z,1015.7
2022-10-06T15:55:40.377Z,1015.7
2022-10-06T15:56:56.000Z,1015.8
2022-10-06T15:58:12.848Z,1015.8
2022-10-06T15:59:29.088Z,1015.7
2022-10-06T16:00:45.332Z,1015.8
2022-10-06T16:02:01.568Z,1015.9
2022-10-06T16:03:17.809Z,1015.9
2022-10-06T16:04:33.069Z,1015.9
2022-10-06T16:05:49.319Z,1015.9
2022-10-06T16:07:05.548Z,1015.9
2022-10-06T16:08:21.779Z,1015.9
2022-10-06T16:09:37.032Z,1015.9
2022-10-06T16:10:53.296Z,1016
2022-10-06T16:12:09.517Z,1015.9
2022-10-06T16:13:24.780Z,1015.9
2022-10-06T16:14:40.027Z,1015.9
2022-10-06T16:15:56.276Z,1015.9
2022-10-06T16:17:12.507Z,1015.9
2022-10-06T16:18:28.747Z,1015.9
2022-10-06T16:19:44.999Z,1015.9